Time;durP1;ratioP1;P1;durP2;ratioP2;P2;SDS_P1;SDS_P2;PMS_P1;PMS_P2;Temp;Humidity;BMP_temperature;BMP_pressure;BME280_temperature;BME280_humidity;BME280_pressure;Samples;Min_cycle;Max_cycle;Signal;HPM_P1;HPM_P2
2023/01/06 00:00:08;;;;;;;6.90;4.40;;;;;;;5.56;92.61;100486.71;105621;1272;60520;-72
2023/01/06 00:02:57;;;;;;;3.70;2.30;;;;;;;5.61;93.93;100486.99;105612;1264;74596;-70
2023/01/06 00:05:28;;;;;;;4.30;1.70;;;;;;;5.68;94.95;100490.36;107966;1262;60615;-72
2023/01/06 00:07:57;;;;;;;1.70;1.30;;;;;;;5.81;95.53;100492.56;107698;1267;69562;-72
2023/01/06 00:10:26;;;;;;;2.50;1.10;;;;;;;5.91;95.78;100485.48;107723;1268;63768;-73
2023/01/06 00:12:55;;;;;;;1.00;0.80;;;;;;;6.05;96.36;100480.35;107811;1264;60762;-72
2023/01/06 00:15:24;;;;;;;0.80;0.60;;;;;;;6.13;96.49;100479.41;107816;1260;60907;-72
2023/01/06 00:17:52;;;;;;;2.50;1.30;;;;;;;6.18;96.28;100475.28;107837;1260;73047;-72
2023/01/06 00:20:21;;;;;;;1.30;0.80;;;;;;;6.23;96.15;100474.50;107927;1268;61323;-72
2023/01/06 00:22:50;;;;;;;1.50;0.80;;;;;;;6.31;95.92;100477.16;107798;1264;59164;-73
2023/01/06 00:25:19;;;;;;;3.90;1.30;;;;;;;6.39;95.30;100478.73;107783;1266;73828;-72
2023/01/06 00:27:48;;;;;;;1.70;0.90;;;;;;;6.52;93.95;100480.41;107805;1258;63258;-73
2023/01/06 00:30:16;;;;;;;3.50;1.20;;;;;;;6.58;93.74;100480.05;107614;1273;59924;-73
2023/01/06 00:32:45;;;;;;;0.60;0.60;;;;;;;6.61;93.50;100484.86;107682;1267;62948;-72
2023/01/06 00:35:14;;;;;;;2.80;1.50;;;;;;;6.65;93.15;100490.70;107906;1260;61566;-72
2023/01/06 00:37:43;;;;;;;1.50;0.80;;;;;;;6.66;93.05;100493.77;107780;1270;59883;-73
2023/01/06 00:40:12;;;;;;;2.70;1.00;;;;;;;6.67;93.04;100497.13;107804;1270;62495;-72
2023/01/06 00:42:41;;;;;;;2.90;1.10;;;;;;;6.72;93.05;100502.55;107790;1269;61790;-72
2023/01/06 00:45:11;;;;;;;2.40;1.20;;;;;;;6.72;93.14;100512.45;107811;1263;61418;-73
2023/01/06 00:47:40;;;;;;;1.70;0.90;;;;;;;6.71;93.16;100518.55;107662;1263;71674;-73
2023/01/06 00:50:09;;;;;;;1.90;0.90;;;;;;;6.70;93.31;100522.60;107971;1258;72680;-72
2023/01/06 00:52:39;;;;;;;2.10;0.90;;;;;;;6.71;93.06;100526.84;107891;1262;70967;-72
2023/01/06 00:55:08;;;;;;;1.60;1.10;;;;;;;6.71;93.07;100528.23;107745;1262;62987;-70
2023/01/06 00:57:38;;;;;;;6.20;2.60;;;;;;;6.70;92.93;100530.88;107752;1261;57143;-73
2023/01/06 01:00:09;;;;;;;4.60;1.80;;;;;;;6.71;92.90;100538.61;107753;1264;61182;-72
2023/01/06 01:02:38;;;;;;;6.20;2.20;;;;;;;6.71;92.72;100542.44;107810;1260;73468;-72
2023/01/06 01:05:08;;;;;;;6.10;1.90;;;;;;;6.74;92.11;100544.14;107972;1255;71877;-71
2023/01/06 01:07:39;;;;;;;8.30;2.90;;;;;;;6.75;91.00;100551.86;107850;1264;69936;-71
2023/01/06 01:10:09;;;;;;;3.90;1.80;;;;;;;6.74;90.59;100550.02;107740;1267;73402;-71
2023/01/06 01:12:38;;;;;;;1.90;1.10;;;;;;;6.79;90.13;100543.16;107831;1267;63078;-73
2023/01/06 01:15:07;;;;;;;4.50;2.00;;;;;;;6.86;89.29;100537.73;107855;1263;60760;-74
2023/01/06 01:17:36;;;;;;;3.60;1.50;;;;;;;6.94;88.39;100536.73;107688;1258;62036;-73
2023/01/06 01:20:06;;;;;;;5.30;2.30;;;;;;;7.01;87.80;100533.58;107908;1257;70866;-72
2023/01/06 01:22:35;;;;;;;2.80;1.40;;;;;;;7.09;87.93;100535.64;107743;1261;70130;-72
2023/01/06 01:25:04;;;;;;;5.30;2.10;;;;;;;7.11;86.70;100532.41;107704;1264;74132;-73
2023/01/06 01:27:33;;;;;;;2.30;1.20;;;;;;;7.12;86.33;100535.80;107748;1256;62374;-73
2023/01/06 01:30:01;;;;;;;1.70;1.20;;;;;;;7.14;86.16;100539.49;107788;1272;57535;-73
2023/01/06 01:32:30;;;;;;;1.30;0.90;;;;;;;7.12;85.87;100538.08;107763;1263;61963;-72
2023/01/06 01:34:59;;;;;;;1.70;1.00;;;;;;;7.11;86.00;100539.66;107819;1264;60641;-72
2023/01/06 01:37:29;;;;;;;1.90;1.20;;;;;;;7.12;85.16;100535.10;107896;1267;68795;-73
2023/01/06 01:39:59;;;;;;;2.00;1.20;;;;;;;7.10;85.09;100535.93;107891;1271;63169;-73
2023/01/06 01:42:29;;;;;;;2.10;1.10;;;;;;;7.09;84.99;100540.13;107802;1263;57641;-72
2023/01/06 01:45:15;;;;;;;2.50;1.20;;;;;;;7.06;85.10;100537.20;107698;1260;59704;-72
2023/01/06 01:48:05;;;;;;;1.80;1.00;;;;;;;7.02;84.94;100539.52;107680;1270;62110;-71
2023/01/06 01:50:49;;;;;;;1.30;0.90;;;;;;;7.01;84.74;100541.65;107806;1262;72097;-72
2023/01/06 01:53:28;;;;;;;2.10;1.20;;;;;;;7.05;84.20;100543.17;107785;1264;59592;-72
2023/01/06 01:56:02;;;;;;;2.40;1.40;;;;;;;7.06;84.43;100537.21;107755;1266;73011;-72
2023/01/06 01:58:39;;;;;;;2.50;1.20;;;;;;;7.05;84.62;100540.89;107681;1265;62562;-72
2023/01/06 02:01:11;;;;;;;1.50;1.00;;;;;;;7.05;84.47;100538.54;107700;1266;57575;-73
2023/01/06 02:03:41;;;;;;;3.40;1.20;;;;;;;7.04;83.70;100538.16;107616;1256;72704;-73
2023/01/06 02:06:17;;;;;;;1.60;1.00;;;;;;;7.08;83.50;100540.36;107743;1265;62284;-73
2023/01/06 02:08:58;;;;;;;1.70;1.00;;;;;;;7.10;83.03;100546.52;107742;1274;59763;-72
2023/01/06 02:11:31;;;;;;;2.80;1.10;;;;;;;7.11;82.60;100548.48;107731;1266;63237;-72
2023/01/06 02:14:13;;;;;;;1.30;0.80;;;;;;;7.16;82.11;100553.08;107735;1267;57100;-73
2023/01/06 02:16:57;;;;;;;4.20;1.50;;;;;;;7.14;82.10;100559.95;107650;1266;57106;-75
2023/01/06 02:19:50;;;;;;;2.10;1.00;;;;;;;7.11;82.30;100564.95;107837;1261;62282;-75
2023/01/06 02:23:11;;;;;;;1.90;1.20;;;;;;;7.14;81.97;100563.40;107776;1259;61624;-75
2023/01/06 02:26:11;;;;;;;1.80;1.10;;;;;;;7.15;80.50;100570.10;107704;1264;70495;-74
2023/01/06 02:29:07;;;;;;;1.60;1.10;;;;;;;7.32;79.67;100583.59;107747;1267;63560;-74
2023/01/06 02:32:05;;;;;;;2.10;1.30;;;;;;;7.48;77.05;100596.52;107654;1274;57692;-73
2023/01/06 02:35:30;;;;;;;1.50;1.10;;;;;;;7.52;76.22;100593.80;107639;1267;57118;-72
2023/01/06 02:38:19;;;;;;;1.40;1.00;;;;;;;7.58;76.49;100613.73;107373;1260;62967;-72
2023/01/06 02:41:12;;;;;;;3.00;0.90;;;;;;;7.46;77.42;100617.77;107954;1261;60986;-72
2023/01/06 02:43:57;;;;;;;1.30;0.90;;;;;;;7.34;78.38;100628.21;107808;1264;69408;-73
2023/01/06 02:46:51;;;;;;;2.00;1.00;;;;;;;7.19;79.58;100627.68;107885;1263;63541;-72
2023/01/06 02:49:43;;;;;;;1.10;0.90;;;;;;;7.07;81.01;100622.55;107693;1267;57137;-73
2023/01/06 02:52:37;;;;;;;1.60;0.90;;;;;;;6.98;81.38;100633.24;107837;1264;57050;-73
2023/01/06 02:55:27;;;;;;;1.70;1.00;;;;;;;6.86;82.20;100627.89;107777;1264;62825;-73
2023/01/06 02:58:10;;;;;;;1.50;1.00;;;;;;;6.74;83.15;100632.61;107907;1258;69348;-72
2023/01/06 03:00:50;;;;;;;1.90;1.10;;;;;;;6.66;83.65;100634.13;107592;1268;70451;-73
2023/01/06 03:03:24;;;;;;;1.80;1.30;;;;;;;6.58;83.81;100635.05;107822;1267;62893;-73
2023/01/06 03:06:03;;;;;;;1.50;1.10;;;;;;;6.55;83.82;100630.73;107579;1267;60496;-72
2023/01/06 03:08:35;;;;;;;1.50;1.20;;;;;;;6.54;83.54;100637.38;107633;1274;57166;-72
2023/01/06 03:11:04;;;;;;;2.00;1.40;;;;;;;6.59;83.01;100641.58;107711;1260;72649;-72
2023/01/06 03:14:22;;;;;;;3.20;1.50;;;;;;;6.60;83.08;100646.05;107814;1264;71307;-74
2023/01/06 03:16:52;;;;;;;3.50;1.70;;;;;;;6.57;82.87;100657.41;107657;1267;60026;-72
2023/01/06 03:19:23;;;;;;;2.30;1.30;;;;;;;6.59;82.64;100659.06;107673;1267;62423;-72
2023/01/06 03:21:53;;;;;;;2.80;1.60;;;;;;;6.64;82.09;100657.58;107591;1273;62192;-74
2023/01/06 03:24:23;;;;;;;2.00;1.40;;;;;;;6.59;82.42;100665.29;107794;1270;61590;-73
2023/01/06 03:26:53;;;;;;;1.60;1.30;;;;;;;6.58;81.80;100661.88;107646;1270;73904;-73
2023/01/06 03:29:23;;;;;;;2.40;1.40;;;;;;;6.59;82.19;100664.27;107795;1261;63275;-73
2023/01/06 03:32:17;;;;;;;2.40;1.40;;;;;;;6.56;82.41;100680.34;107826;1271;69572;-73
2023/01/06 03:34:53;;;;;;;4.00;1.60;;;;;;;6.58;81.65;100680.93;107712;1269;63658;-72
2023/01/06 03:37:40;;;;;;;1.90;1.40;;;;;;;6.57;80.80;100673.56;107649;1271;61766;-74
2023/01/06 03:40:19;;;;;;;2.80;1.50;;;;;;;6.55;80.47;100667.06;107733;1261;61032;-75
2023/01/06 03:43:18;;;;;;;4.30;1.70;;;;;;;6.60;79.76;100684.27;107656;1270;63330;-75
2023/01/06 03:46:20;;;;;;;4.00;1.40;;;;;;;6.62;79.23;100683.27;107882;1260;60850;-75
2023/01/06 03:49:18;;;;;;;2.70;1.40;;;;;;;6.54;79.25;100677.16;107770;1260;70448;-75
2023/01/06 03:51:52;;;;;;;2.10;1.30;;;;;;;6.68;78.58;100692.88;107576;1264;74187;-76
2023/01/06 03:55:09;;;;;;;1.90;1.30;;;;;;;6.67;78.43;100699.45;107766;1264;61997;-76
2023/01/06 03:57:42;;;;;;;;;;;;;;;6.61;78.57;100692.52;107804;1264;60915;-75
2023/01/06 04:00:25;;;;;;;1.70;1.20;;;;;;;6.55;78.61;100698.77;107679;1267;63187;-74
2023/01/06 04:02:58;;;;;;;2.00;1.30;;;;;;;6.51;78.39;100709.17;107847;1265;61579;-76
2023/01/06 04:05:28;;;;;;;2.40;1.30;;;;;;;6.55;77.99;100709.64;107620;1267;59173;-76
2023/01/06 04:07:58;;;;;;;2.60;1.20;;;;;;;6.57;77.35;100716.61;107787;1270;62461;-75
2023/01/06 04:10:27;;;;;;;2.60;1.20;;;;;;;6.55;76.73;100726.23;107669;1270;57173;-75
2023/01/06 04:12:58;;;;;;;3.50;1.50;;;;;;;6.55;76.07;100721.05;107741;1273;60927;-73
2023/01/06 04:15:30;;;;;;;1.70;1.10;;;;;;;6.49;75.84;100722.08;107784;1259;73764;-73
2023/01/06 04:17:59;;;;;;;2.30;1.40;;;;;;;6.34;76.53;100724.96;107880;1265;61142;-73
2023/01/06 04:20:30;;;;;;;2.40;1.10;;;;;;;6.33;76.43;100709.63;107691;1264;68947;-74
2023/01/06 04:23:32;;;;;;;2.30;1.40;;;;;;;6.32;76.33;100729.41;107662;1266;72007;-73
2023/01/06 04:26:03;;;;;;;1.20;1.00;;;;;;;6.34;75.95;100726.37;107470;1270;57518;-74
2023/01/06 04:28:36;;;;;;;;;;;;;;;6.33;75.27;100731.94;107633;1265;57752;-74
2023/01/06 04:31:07;;;;;;;1.30;1.00;;;;;;;6.32;75.18;100748.29;107579;1266;62964;-74
2023/01/06 04:33:37;;;;;;;1.70;1.20;;;;;;;6.32;74.11;100756.89;107686;1257;72190;-74
2023/01/06 04:36:07;;;;;;;2.10;1.20;;;;;;;6.32;74.03;100765.75;107530;1264;59902;-74
2023/01/06 04:38:37;;;;;;;1.70;1.20;;;;;;;6.32;74.14;100769.02;107593;1260;64231;-74
2023/01/06 04:41:06;;;;;;;2.80;1.20;;;;;;;6.30;74.10;100774.33;107693;1270;57741;-73
2023/01/06 04:43:35;;;;;;;2.80;1.20;;;;;;;6.26;74.10;100780.90;107770;1265;57764;-75
2023/01/06 04:46:04;;;;;;;1.80;1.40;;;;;;;6.24;74.06;100789.70;107861;1269;62153;-75
2023/01/06 04:48:33;;;;;;;2.00;1.30;;;;;;;6.22;74.00;100793.23;107865;1261;61450;-73
2023/01/06 04:51:06;;;;;;;2.00;1.00;;;;;;;6.22;73.84;100809.68;107824;1261;59915;-73
2023/01/06 04:53:39;;;;;;;2.20;1.30;;;;;;;6.22;73.61;100801.06;107700;1264;74233;-73
2023/01/06 04:56:11;;;;;;;2.50;1.20;;;;;;;6.14;74.05;100813.58;107775;1264;57364;-74
2023/01/06 04:58:40;;;;;;;2.30;1.50;;;;;;;6.11;74.03;100816.83;107605;1270;61121;-74
2023/01/06 05:01:11;;;;;;;1.70;1.20;;;;;;;6.10;74.05;100826.90;107748;1260;73370;-74
2023/01/06 05:03:41;;;;;;;2.70;1.30;;;;;;;6.14;73.79;100823.41;107824;1269;61884;-75
2023/01/06 05:06:11;;;;;;;2.40;1.50;;;;;;;6.13;73.68;100830.20;107726;1270;69610;-74
2023/01/06 05:08:42;;;;;;;2.30;1.70;;;;;;;6.11;74.40;100830.52;107531;1263;74302;-73
2023/01/06 05:11:16;;;;;;;2.00;1.30;;;;;;;6.06;74.36;100825.41;107780;1261;57725;-76
2023/01/06 05:13:46;;;;;;;1.80;1.40;;;;;;;6.16;73.22;100850.48;107828;1260;61509;-74
2023/01/06 05:16:17;;;;;;;2.00;1.40;;;;;;;6.14;73.17;100837.80;107837;1264;73636;-74
2023/01/06 05:18:46;;;;;;;2.80;1.50;;;;;;;6.10;73.40;100843.32;108009;1259;71358;-75
2023/01/06 05:21:15;;;;;;;2.80;1.50;;;;;;;6.05;73.22;100846.67;107880;1264;59663;-74
2023/01/06 05:23:44;;;;;;;3.60;1.90;;;;;;;6.00;73.26;100850.45;107827;1261;64471;-75
2023/01/06 05:26:18;;;;;;;1.80;1.50;;;;;;;5.95;73.49;100856.57;107877;1265;57717;-75
2023/01/06 05:28:48;;;;;;;6.30;2.20;;;;;;;5.91;73.60;100853.48;107903;1264;57750;-76
2023/01/06 05:31:17;;;;;;;1.80;1.30;;;;;;;5.88;72.95;100859.48;107884;1255;62900;-76
2023/01/06 05:33:46;;;;;;;2.20;1.40;;;;;;;5.93;72.30;100855.41;107814;1261;71895;-74
2023/01/06 05:36:17;;;;;;;2.90;1.50;;;;;;;5.96;72.04;100856.33;107855;1271;70767;-74
2023/01/06 05:38:52;;;;;;;2.80;1.30;;;;;;;5.87;71.35;100864.55;107685;1260;73389;-72
2023/01/06 05:41:21;;;;;;;1.20;1.00;;;;;;;5.82;71.50;100863.56;107867;1259;61139;-77
2023/01/06 05:43:49;;;;;;;1.80;1.20;;;;;;;5.77;71.17;100873.30;107879;1260;61844;-75
2023/01/06 05:46:18;;;;;;;2.00;1.20;;;;;;;5.80;71.15;100868.52;107667;1272;62628;-75
2023/01/06 05:48:47;;;;;;;2.00;1.40;;;;;;;5.83;70.69;100873.71;108039;1263;61539;-77
2023/01/06 05:51:16;;;;;;;3.20;1.10;;;;;;;5.78;70.49;100872.04;107956;1255;59870;-75
2023/01/06 05:53:47;;;;;;;1.70;1.10;;;;;;;5.85;70.39;100868.09;107936;1263;63225;-76
2023/01/06 05:56:19;;;;;;;1.60;1.20;;;;;;;5.81;70.45;100875.36;107598;1260;61791;-77
2023/01/06 05:58:51;;;;;;;1.20;1.00;;;;;;;5.81;70.66;100882.48;107745;1267;60554;-74
2023/01/06 06:01:22;;;;;;;2.50;1.20;;;;;;;5.83;69.64;100887.39;107983;1255;73878;-74
2023/01/06 06:03:53;;;;;;;1.20;1.00;;;;;;;5.83;69.26;100884.27;107854;1262;61227;-74
2023/01/06 06:06:25;;;;;;;1.60;1.10;;;;;;;5.83;69.33;100897.56;107657;1260;69898;-75
2023/01/06 06:08:54;;;;;;;2.10;1.20;;;;;;;5.72;69.79;100912.80;107796;1273;73398;-73
2023/01/06 06:11:23;;;;;;;2.60;1.10;;;;;;;5.76;69.24;100920.92;107592;1264;59815;-72
2023/01/06 06:13:54;;;;;;;4.30;1.30;;;;;;;5.75;69.57;100937.04;107778;1260;60602;-76
2023/01/06 06:16:26;;;;;;;1.80;1.20;;;;;;;5.75;70.02;100940.12;107721;1267;71951;-72
2023/01/06 06:18:57;;;;;;;2.30;1.50;;;;;;;5.73;70.27;100948.70;107915;1257;60777;-74
2023/01/06 06:21:29;;;;;;;3.30;1.60;;;;;;;5.66;70.51;100948.35;107701;1270;59249;-70
2023/01/06 06:23:59;;;;;;;2.90;1.50;;;;;;;5.59;70.92;100960.30;107635;1262;63279;-73
2023/01/06 06:26:28;;;;;;;2.20;1.30;;;;;;;5.65;70.66;100973.48;107587;1266;59297;-74
2023/01/06 06:28:57;;;;;;;2.00;1.50;;;;;;;5.59;71.19;100976.84;107740;1265;60175;-73
2023/01/06 06:31:28;;;;;;;2.50;1.60;;;;;;;5.61;71.20;100980.57;107794;1264;63379;-73
2023/01/06 06:33:59;;;;;;;3.00;1.50;;;;;;;5.62;71.26;100991.92;107768;1268;61607;-76
2023/01/06 06:36:30;;;;;;;3.10;1.80;;;;;;;5.64;71.06;100989.78;107747;1267;69789;-74
2023/01/06 06:39:00;;;;;;;2.90;1.70;;;;;;;5.62;71.20;101000.39;107964;1261;73920;-73
2023/01/06 06:41:29;;;;;;;2.80;1.60;;;;;;;5.59;71.54;101006.59;107783;1257;59613;-72
2023/01/06 06:43:58;;;;;;;4.70;1.90;;;;;;;5.60;71.45;101008.25;107811;1258;61172;-75
2023/01/06 06:46:26;;;;;;;3.60;1.90;;;;;;;5.58;71.62;101022.31;107814;1259;73779;-74
2023/01/06 06:48:55;;;;;;;3.40;2.00;;;;;;;5.55;71.88;101027.30;107975;1258;61965;-74
2023/01/06 06:51:24;;;;;;;3.50;2.00;;;;;;;5.54;72.19;101037.36;107847;1267;68618;-73
2023/01/06 06:53:53;;;;;;;4.30;1.90;;;;;;;5.51;71.98;101038.38;107754;1260;62406;-73
2023/01/06 06:56:22;;;;;;;3.20;2.00;;;;;;;5.52;72.16;101038.15;107752;1261;59812;-73
2023/01/06 06:58:51;;;;;;;4.50;2.20;;;;;;;5.56;71.80;101045.73;107813;1265;57530;-76
2023/01/06 07:01:20;;;;;;;3.30;1.90;;;;;;;5.57;71.64;101042.23;107794;1262;62784;-77
2023/01/06 07:03:49;;;;;;;3.40;2.20;;;;;;;5.59;71.66;101054.95;107690;1267;62815;-75
2023/01/06 07:06:21;;;;;;;3.60;2.20;;;;;;;5.52;71.92;101056.32;107874;1264;68532;-74
2023/01/06 07:08:50;;;;;;;3.10;2.00;;;;;;;5.56;71.61;101052.68;107850;1265;62445;-75
2023/01/06 07:11:20;;;;;;;2.70;1.80;;;;;;;5.60;71.64;101056.96;107901;1263;57080;-75
2023/01/06 07:13:49;;;;;;;4.10;2.10;;;;;;;5.64;71.10;101061.31;107756;1258;57151;-74
2023/01/06 07:16:21;;;;;;;3.10;1.80;;;;;;;5.63;70.78;101057.54;107803;1269;62965;-75
2023/01/06 07:18:50;;;;;;;3.00;1.90;;;;;;;5.67;70.37;101066.50;107752;1262;62680;-73
2023/01/06 07:21:19;;;;;;;3.20;1.90;;;;;;;5.66;70.29;101067.21;107848;1257;59892;-74
2023/01/06 07:23:48;;;;;;;2.80;1.70;;;;;;;5.73;70.24;101073.15;107824;1263;70942;-76
2023/01/06 07:26:17;;;;;;;3.70;2.40;;;;;;;5.70;70.63;101071.89;107829;1260;57065;-75
2023/01/06 07:28:46;;;;;;;2.30;1.30;;;;;;;5.72;70.39;101082.35;107761;1258;57473;-72
2023/01/06 07:31:15;;;;;;;3.10;1.90;;;;;;;5.75;70.45;101093.25;107761;1260;73419;-74
2023/01/06 07:33:44;;;;;;;2.80;1.80;;;;;;;5.75;70.24;101094.64;107849;1258;72302;-75
2023/01/06 07:36:12;;;;;;;3.20;1.70;;;;;;;5.75;70.25;101104.34;107828;1258;61652;-75
2023/01/06 07:38:41;;;;;;;2.20;1.40;;;;;;;5.80;69.60;101112.23;107661;1260;63636;-77
2023/01/06 07:41:10;;;;;;;3.40;2.20;;;;;;;5.85;68.76;101108.02;107810;1255;57661;-74
2023/01/06 07:43:39;;;;;;;3.20;1.50;;;;;;;5.87;68.38;101107.58;107737;1263;57207;-73
2023/01/06 07:46:08;;;;;;;2.30;1.60;;;;;;;5.87;67.92;101108.79;107822;1263;62898;-73
2023/01/06 07:48:37;;;;;;;4.10;1.30;;;;;;;5.96;67.66;101101.47;107750;1256;62239;-79
2023/01/06 07:51:06;;;;;;;3.00;1.70;;;;;;;6.02;67.08;101102.42;107690;1264;70018;-76
2023/01/06 07:53:35;;;;;;;3.80;2.20;;;;;;;6.09;66.54;101102.92;107593;1261;74060;-77
2023/01/06 07:56:04;;;;;;;2.50;1.60;;;;;;;6.04;66.71;101120.98;107510;1270;60805;-75
2023/01/06 07:58:33;;;;;;;1.70;1.30;;;;;;;6.11;66.40;101129.98;107564;1265;59897;-77
2023/01/06 08:01:07;;;;;;;3.30;1.60;;;;;;;6.15;65.98;101118.05;107579;1271;73304;-75
2023/01/06 08:03:36;;;;;;;2.70;1.40;;;;;;;6.07;65.83;101130.87;107865;1256;72148;-76
2023/01/06 08:06:10;;;;;;;2.10;1.40;;;;;;;6.15;65.92;101129.09;107687;1268;59524;-78
2023/01/06 08:08:40;;;;;;;2.50;1.60;;;;;;;6.21;65.85;101140.77;107479;1259;73783;-73
2023/01/06 08:11:13;;;;;;;1.90;1.50;;;;;;;6.20;65.74;101136.16;107665;1263;57570;-75
2023/01/06 08:13:42;;;;;;;1.60;1.40;;;;;;;6.14;66.24;101136.97;107506;1257;60321;-74
2023/01/06 08:16:11;;;;;;;2.60;1.60;;;;;;;6.18;66.06;101142.66;107574;1260;74031;-76
2023/01/06 08:18:40;;;;;;;3.10;1.60;;;;;;;6.21;66.60;101135.39;107780;1255;70388;-75
2023/01/06 08:21:10;;;;;;;2.90;1.30;;;;;;;6.22;66.33;101148.34;107699;1267;59680;-75
2023/01/06 08:23:40;;;;;;;3.10;1.90;;;;;;;6.18;66.49;101146.64;107796;1264;64126;-74
2023/01/06 08:26:15;;;;;;;3.30;2.00;;;;;;;6.15;67.04;101157.81;107625;1265;60401;-76
2023/01/06 08:28:44;;;;;;;3.10;1.80;;;;;;;6.19;66.98;101163.34;107602;1261;57101;-76
2023/01/06 08:31:17;;;;;;;3.80;1.70;;;;;;;6.23;66.81;101156.94;107523;1267;72638;-76
2023/01/06 08:33:51;;;;;;;2.20;1.60;;;;;;;6.28;66.76;101185.24;107833;1264;60711;-78
2023/01/06 08:36:24;;;;;;;3.00;1.40;;;;;;;6.22;66.98;101189.31;107516;1260;70365;-75
2023/01/06 08:38:55;;;;;;;2.10;1.50;;;;;;;6.30;66.81;101183.27;107461;1268;73154;-75
2023/01/06 08:41:28;;;;;;;2.90;2.10;;;;;;;6.22;67.14;101177.39;107567;1260;57748;-74
2023/01/06 08:44:02;;;;;;;2.80;1.50;;;;;;;6.22;67.65;101179.10;107465;1264;59720;-75
2023/01/06 08:46:33;;;;;;;2.80;1.80;;;;;;;6.25;67.45;101193.84;107307;1263;62704;-77
2023/01/06 08:49:02;;;;;;;2.90;1.70;;;;;;;6.25;68.40;101189.52;107763;1260;72108;-75
2023/01/06 08:51:31;;;;;;;4.10;2.30;;;;;;;6.32;68.22;101207.52;107616;1267;69454;-76
2023/01/06 08:54:00;;;;;;;3.90;2.00;;;;;;;6.16;69.48;101207.59;107629;1260;74112;-76
2023/01/06 08:56:31;;;;;;;3.30;2.10;;;;;;;6.15;69.84;101209.38;107737;1263;58495;-77
2023/01/06 08:59:03;;;;;;;3.40;2.10;;;;;;;6.12;69.18;101216.08;107769;1260;60558;-77
2023/01/06 09:01:36;;;;;;;1.70;1.00;;;;;;;6.03;68.33;101225.98;107748;1260;73153;-76
2023/01/06 09:04:07;;;;;;;1.60;1.30;;;;;;;6.02;66.89;101217.20;107792;1261;71676;-76
2023/01/06 09:06:36;;;;;;;2.00;1.20;;;;;;;5.79;67.75;101237.92;107882;1258;71526;-75
2023/01/06 09:09:06;;;;;;;2.50;1.40;;;;;;;5.80;67.84;101228.03;107896;1255;63652;-75
2023/01/06 09:11:36;;;;;;;2.00;1.30;;;;;;;5.78;67.57;101254.58;107782;1260;57720;-74
2023/01/06 09:14:06;;;;;;;3.50;1.50;;;;;;;5.81;67.37;101253.02;107745;1255;61161;-75
2023/01/06 09:16:35;;;;;;;2.30;1.40;;;;;;;5.78;68.07;101253.16;107837;1260;62553;-75
2023/01/06 09:19:04;;;;;;;0.90;0.90;;;;;;;5.76;68.48;101255.14;107977;1258;69527;-74
2023/01/06 09:21:33;;;;;;;2.30;1.30;;;;;;;5.81;68.13;101267.21;107774;1260;60403;-76
2023/01/06 09:24:02;;;;;;;1.90;1.20;;;;;;;5.80;68.28;101267.44;107783;1263;63260;-74
2023/01/06 09:26:31;;;;;;;3.20;1.20;;;;;;;5.81;68.49;101277.58;107739;1267;58941;-76
2023/01/06 09:29:00;;;;;;;2.80;1.60;;;;;;;5.81;69.11;101270.83;107785;1266;60291;-76
2023/01/06 09:31:29;;;;;;;2.90;1.50;;;;;;;5.76;68.91;101283.19;107678;1259;73322;-75
2023/01/06 09:33:57;;;;;;;4.00;1.80;;;;;;;5.79;68.51;101284.60;107798;1255;71825;-75
2023/01/06 09:36:26;;;;;;;2.30;1.50;;;;;;;5.78;68.63;101289.48;107704;1256;59643;-76
2023/01/06 09:38:55;;;;;;;1.50;1.10;;;;;;;5.74;68.53;101306.23;107778;1261;62338;-76
2023/01/06 09:42:05;;;;;;;2.40;1.20;;;;;;;5.89;67.70;101294.90;107738;1270;59622;-76
2023/01/06 09:45:30;;;;;;;1.20;0.90;;;;;;;5.94;66.83;101300.91;107668;1262;60847;-76
2023/01/06 09:48:02;;;;;;;1.90;1.10;;;;;;;6.03;65.84;101297.08;107721;1263;73438;-77
2023/01/06 09:50:36;;;;;;;1.50;1.00;;;;;;;5.97;65.24;101299.06;107931;1251;62038;-78
2023/01/06 09:53:31;;;;;;;1.30;1.00;;;;;;;5.94;65.22;101301.42;107677;1266;69875;-76
2023/01/06 09:56:06;;;;;;;2.10;1.30;;;;;;;5.89;65.58;101283.13;107778;1257;72401;-78
2023/01/06 09:58:44;;;;;;;2.40;1.30;;;;;;;5.93;65.96;101288.18;107618;1267;57661;-76
2023/01/06 10:01:21;;;;;;;2.90;1.40;;;;;;;5.91;66.15;101296.17;107833;1270;57723;-75
2023/01/06 10:04:00;;;;;;;1.90;1.20;;;;;;;5.77;65.58;101304.20;107738;1268;62572;-77
2023/01/06 10:06:38;;;;;;;3.60;1.60;;;;;;;5.70;64.08;101301.38;107469;1267;60965;-75
2023/01/06 10:10:07;;;;;;;1.90;1.30;;;;;;;5.73;63.11;101306.79;107804;1258;59031;-77
2023/01/06 10:12:53;;;;;;;2.00;1.30;;;;;;;5.74;63.12;101307.45;107750;1262;63345;-76
2023/01/06 10:15:56;;;;;;;2.60;1.50;;;;;;;5.70;63.98;101298.98;107911;1259;57825;-77
2023/01/06 10:18:47;;;;;;;2.60;1.40;;;;;;;5.75;64.26;101306.73;107836;1270;60311;-78
2023/01/06 10:21:39;;;;;;;2.00;1.30;;;;;;;5.68;64.95;101304.24;107823;1260;62531;-76
2023/01/06 10:24:34;;;;;;;2.80;1.40;;;;;;;5.72;65.35;101308.38;107231;1271;486254;-78
2023/01/06 10:27:24;;;;;;;2.00;1.20;;;;;;;5.86;65.52;101315.08;107736;1260;60293;-77
2023/01/06 10:29:56;;;;;;;3.10;1.70;;;;;;;5.84;65.39;101329.52;107605;1263;72999;-77
2023/01/06 10:32:30;;;;;;;4.40;1.30;;;;;;;5.94;64.44;101319.23;107630;1260;59894;-78
2023/01/06 10:35:01;;;;;;;1.90;1.40;;;;;;;5.89;64.83;101320.30;107723;1260;57797;-77
2023/01/06 10:37:40;;;;;;;1.80;1.10;;;;;;;5.98;64.10;101325.48;107686;1260;72571;-78
2023/01/06 10:40:25;;;;;;;3.50;1.70;;;;;;;6.05;63.82;101328.43;107414;1265;71613;-75
2023/01/06 10:43:11;;;;;;;2.20;1.30;;;;;;;6.04;63.61;101329.15;107636;1266;60675;-77
2023/01/06 10:45:46;;;;;;;2.10;1.30;;;;;;;6.04;63.65;101341.44;107510;1254;73864;-76
2023/01/06 10:48:27;;;;;;;1.70;1.20;;;;;;;6.08;62.40;101344.55;107653;1260;57704;-77
2023/01/06 10:50:56;;;;;;;1.30;1.10;;;;;;;5.97;62.11;101341.59;107604;1265;60385;-77
2023/01/06 10:53:25;;;;;;;1.40;1.00;;;;;;;5.97;62.36;101359.59;107575;1263;71461;-78
2023/01/06 10:55:57;;;;;;;1.80;1.40;;;;;;;5.84;62.21;101367.85;107947;1255;61516;-76
2023/01/06 10:59:05;;;;;;;2.40;1.40;;;;;;;5.75;62.08;101372.70;107676;1260;69629;-79
2023/01/06 11:01:46;;;;;;;2.30;1.50;;;;;;;5.74;62.79;101371.58;107652;1258;71137;-74
2023/01/06 11:04:16;;;;;;;2.00;1.30;;;;;;;5.78;62.54;101376.24;107742;1261;60168;-77
2023/01/06 11:07:00;;;;;;;2.80;1.50;;;;;;;5.74;62.51;101373.14;107663;1260;62404;-75
2023/01/06 11:09:42;;;;;;;2.70;1.80;;;;;;;5.74;62.41;101366.90;107835;1265;62071;-75
2023/01/06 11:12:19;;;;;;;3.20;1.60;;;;;;;5.68;62.78;101378.70;107929;1255;71413;-76
2023/01/06 11:15:06;;;;;;;3.50;1.80;;;;;;;5.74;62.99;101370.36;107505;1262;69648;-78
2023/01/06 11:17:35;;;;;;;3.10;2.20;;;;;;;5.77;63.35;101380.08;107646;1258;75093;-77
2023/01/06 11:20:22;;;;;;;3.50;2.20;;;;;;;5.72;63.72;101384.08;107755;1264;57620;-77
2023/01/06 11:22:51;;;;;;;4.20;2.00;;;;;;;5.66;64.19;101383.48;107761;1260;61169;-77
2023/01/06 11:25:31;;;;;;;3.50;2.00;;;;;;;5.58;63.90;101395.39;107844;1263;73140;-79
2023/01/06 11:28:20;;;;;;;2.30;1.70;;;;;;;5.62;64.72;101382.27;107769;1258;72464;-76
2023/01/06 11:30:57;;;;;;;2.40;1.60;;;;;;;5.65;63.96;101384.21;107832;1261;70681;-78
2023/01/06 11:33:29;;;;;;;2.60;1.80;;;;;;;5.72;63.86;101389.63;107681;1258;63011;-76
2023/01/06 11:36:06;;;;;;;4.60;1.90;;;;;;;5.76;64.12;101390.34;107675;1256;60363;-75
2023/01/06 11:38:48;;;;;;;2.40;1.60;;;;;;;5.71;63.12;101387.77;107699;1260;57653;-74
2023/01/06 11:41:34;;;;;;;3.10;2.00;;;;;;;5.53;63.49;101405.23;107683;1264;62893;-74
2023/01/06 11:44:30;;;;;;;2.50;1.90;;;;;;;5.38;64.41;101415.55;107961;1254;63161;-77
2023/01/06 11:47:06;;;;;;;4.70;2.20;;;;;;;5.43;63.73;101408.23;107585;1260;69950;-75
2023/01/06 11:49:59;;;;;;;5.40;2.40;;;;;;;5.43;63.70;101422.44;107660;1266;63615;-75
2023/01/06 11:52:33;;;;;;;2.80;2.30;;;;;;;5.28;63.99;101423.88;107650;1266;59000;-74
2023/01/06 11:55:07;;;;;;;3.30;2.40;;;;;;;5.35;64.17;101424.29;107729;1260;61039;-75
2023/01/06 11:58:10;;;;;;;3.00;2.30;;;;;;;5.09;64.30;101421.15;107811;1256;62805;-77
2023/01/06 12:00:55;;;;;;;4.10;2.30;;;;;;;5.09;64.35;101425.80;107873;1255;61552;-72
2023/01/06 12:03:50;;;;;;;5.30;2.10;;;;;;;5.13;64.05;101425.30;107824;1262;69668;-75